sensor_id;sensor_type;location;lat;lon;timestamp;temperature;humidity
6788;DHT22;3431;47.966;10.268;2023-07-28T00:00:04;16.20;99.90
6788;DHT22;3431;47.966;10.268;2023-07-28T00:00:31;16.20;99.90
6788;DHT22;3431;47.966;10.268;2023-07-28T00:00:54;16.20;99.90
6788;DHT22;3431;47.966;10.268;2023-07-28T00:01:15;16.10;99.90
6788;DHT22;3431;47.966;10.268;2023-07-28T00:01:37;16.20;99.90
6788;DHT22;3431;47.966;10.268;2023-07-28T00:01:58;16.10;99.90
6788;DHT22;3431;47.966;10.268;2023-07-28T00:02:20;16.10;99.90
6788;DHT22;3431;47.966;10.268;2023-07-28T00:02:42;16.10;99.90
6788;DHT22;3431;47.966;10.268;2023-07-28T00:03:04;16.10;99.90
6788;DHT22;3431;47.966;10.268;2023-07-28T00:03:26;16.10;99.90
6788;DHT22;3431;47.966;10.268;2023-07-28T00:03:47;16.10;99.90
6788;DHT22;3431;47.966;10.268;2023-07-28T00:04:09;16.10;99.90
6788;DHT22;3431;47.966;10.268;2023-07-28T00:04:33;16.10;99.90
6788;DHT22;3431;47.966;10.268;2023-07-28T00:04:56;16.10;99.90
6788;DHT22;3431;47.966;10.268;2023-07-28T00:05:18;16.10;99.90
6788;DHT22;3431;47.966;10.268;2023-07-28T00:05:39;16.10;99.90
6788;DHT22;3431;47.966;10.268;2023-07-28T00:06:01;16.10;99.90
6788;DHT22;3431;47.966;10.268;2023-07-28T00:06:22;16.10;99.90
6788;DHT22;3431;47.966;10.268;2023-07-28T00:06:45;16.10;99.90
6788;DHT22;3431;47.966;10.268;2023-07-28T00:07:07;16.10;99.90
6788;DHT22;3431;47.966;10.268;2023-07-28T00:07:29;16.10;99.90
6788;DHT22;3431;47.966;10.268;2023-07-28T00:07:50;16.10;99.90
6788;DHT22;3431;47.966;10.268;2023-07-28T00:08:12;16.10;99.90
6788;DHT22;3431;47.966;10.268;2023-07-28T00:08:34;16.10;99.90
6788;DHT22;3431;47.966;10.268;2023-07-28T00:08:56;16.10;99.90
6788;DHT22;3431;47.966;10.268;2023-07-28T00:09:18;16.10;99.90
6788;DHT22;3431;47.966;10.268;2023-07-28T00:09:39;16.10;99.90
6788;DHT22;3431;47.966;10.268;2023-07-28T00:10:01;16.10;99.90
6788;DHT22;3431;47.966;10.268;2023-07-28T00:10:23;16.10;99.90
6788;DHT22;3431;47.966;10.268;2023-07-28T00:10:45;16.10;99.90
6788;DHT22;3431;47.966;10.268;2023-07-28T00:11:09;16.10;99.90
6788;DHT22;3431;47.966;10.268;2023-07-28T00:11:31;16.10;99.90
6788;DHT22;3431;47.966;10.268;2023-07-28T00:11:53;16.10;99.90
6788;DHT22;3431;47.966;10.268;2023-07-28T00:12:14;16.10;99.90
6788;DHT22;3431;47.966;10.268;2023-07-28T00:12:37;16.20;99.90
6788;DHT22;3431;47.966;10.268;2023-07-28T00:12:59;16.20;99.90
6788;DHT22;3431;47.966;10.268;2023-07-28T00:13:20;16.20;99.90
6788;DHT22;3431;47.966;10.268;2023-07-28T00:13:43;16.20;99.90
6788;DHT22;3431;47.966;10.268;2023-07-28T00:14:05;16.20;99.90
6788;DHT22;3431;47.966;10.268;2023-07-28T00:14:28;16.20;99.90
6788;DHT22;3431;47.966;10.268;2023-07-28T00:14:50;16.20;99.90
6788;DHT22;3431;47.966;10.268;2023-07-28T00:15:12;16.20;99.90
6788;DHT22;3431;47.966;10.268;2023-07-28T00:15:34;16.20;99.90
6788;DHT22;3431;47.966;10.268;2023-07-28T00:15:55;16.20;99.90
6788;DHT22;3431;47.966;10.268;2023-07-28T00:16:17;16.20;99.90
6788;DHT22;3431;47.966;10.268;2023-07-28T00:16:38;16.20;99.90
6788;DHT22;3431;47.966;10.268;2023-07-28T00:17:01;16.20;99.90
6788;DHT22;3431;47.966;10.268;2023-07-28T00:17:22;16.20;99.90
6788;DHT22;3431;47.966;10.268;2023-07-28T00:17:44;16.20;99.90
6788;DHT22;3431;47.966;10.268;2023-07-28T00:18:06;16.20;99.90
6788;DHT22;3431;47.966;10.268;2023-07-28T00:18:28;16.30;99.90
6788;DHT22;3431;47.966;10.268;2023-07-28T00:18:50;16.20;99.90
6788;DHT22;3431;47.966;10.268;2023-07-28T00:19:11;16.30;99.90
6788;DHT22;3431;47.966;10.268;2023-07-28T00:19:33;16.20;99.90
6788;DHT22;3431;47.966;10.268;2023-07-28T00:19:54;16.30;99.90
6788;DHT22;3431;47.966;10.268;2023-07-28T00:20:17;16.30;99.90
6788;DHT22;3431;47.966;10.268;2023-07-28T00:20:39;16.30;99.90
6788;DHT22;3431;47.966;10.268;2023-07-28T00:21:01;16.30;99.90
6788;DHT22;3431;47.966;10.268;2023-07-28T00:21:23;16.30;99.90
6788;DHT22;3431;47.966;10.268;2023-07-28T00:21:44;16.30;99.90
6788;DHT22;3431;47.966;10.268;2023-07-28T00:22:07;16.30;99.90
6788;DHT22;3431;47.966;10.268;2023-07-28T00:22:28;16.30;99.90
6788;DHT22;3431;47.966;10.268;2023-07-28T00:22:50;16.30;99.90
6788;DHT22;3431;47.966;10.268;2023-07-28T00:23:12;16.30;99.90
6788;DHT22;3431;47.966;10.268;2023-07-28T00:23:33;16.30;99.90
6788;DHT22;3431;47.966;10.268;2023-07-28T00:23:55;16.30;99.90
6788;DHT22;3431;47.966;10.268;2023-07-28T00:24:18;16.30;99.90
6788;DHT22;3431;47.966;10.268;2023-07-28T00:24:39;16.30;99.90
6788;DHT22;3431;47.966;10.268;2023-07-28T00:25:01;16.30;99.90
6788;DHT22;3431;47.966;10.268;2023-07-28T00:25:23;16.30;99.90
6788;DHT22;3431;47.966;10.268;2023-07-28T00:25:45;16.30;99.90
6788;DHT22;3431;47.966;10.268;2023-07-28T00:26:07;16.30;99.90
6788;DHT22;3431;47.966;10.268;2023-07-28T00:26:29;16.40;99.90
6788;DHT22;3431;47.966;10.268;2023-07-28T00:26:50;16.30;99.90
6788;DHT22;3431;47.966;10.268;2023-07-28T00:27:12;16.30;99.90
6788;DHT22;3431;47.966;10.268;2023-07-28T00:27:36;16.30;99.90
6788;DHT22;3431;47.966;10.268;2023-07-28T00:27:57;16.30;99.90
6788;DHT22;3431;47.966;10.268;2023-07-28T00:28:19;16.30;99.90
6788;DHT22;3431;47.966;10.268;2023-07-28T00:28:43;16.30;99.90
6788;DHT22;3431;47.966;10.268;2023-07-28T00:29:05;16.30;99.90
6788;DHT22;3431;47.966;10.268;2023-07-28T00:29:29;16.30;99.90
6788;DHT22;3431;47.966;10.268;2023-07-28T00:29:51;16.30;99.90
6788;DHT22;3431;47.966;10.268;2023-07-28T00:30:12;16.30;99.90
6788;DHT22;3431;47.966;10.268;2023-07-28T00:30:34;16.30;99.90
6788;DHT22;3431;47.966;10.268;2023-07-28T00:30:55;16.30;99.90
6788;DHT22;3431;47.966;10.268;2023-07-28T00:31:17;16.30;99.90
6788;DHT22;3431;47.966;10.268;2023-07-28T00:31:39;16.30;99.90
6788;DHT22;3431;47.966;10.268;2023-07-28T00:32:03;16.40;99.90
6788;DHT22;3431;47.966;10.268;2023-07-28T00:32:25;16.30;99.90
6788;DHT22;3431;47.966;10.268;2023-07-28T00:32:46;16.40;99.90
6788;DHT22;3431;47.966;10.268;2023-07-28T00:33:08;16.40;99.90
6788;DHT22;3431;47.966;10.268;2023-07-28T00:33:32;16.40;99.90
6788;DHT22;3431;47.966;10.268;2023-07-28T00:33:54;16.40;99.90
6788;DHT22;3431;47.966;10.268;2023-07-28T00:34:15;16.30;99.90
6788;DHT22;3431;47.966;10.268;2023-07-28T00:34:37;16.40;99.90
6788;DHT22;3431;47.966;10.268;2023-07-28T00:34:59;16.40;99.90
6788;DHT22;3431;47.966;10.268;2023-07-28T00:35:21;16.40;99.90
6788;DHT22;3431;47.966;10.268;2023-07-28T00:35:42;16.40;99.90
6788;DHT22;3431;47.966;10.268;2023-07-28T00:36:05;16.40;99.90
6788;DHT22;3431;47.966;10.268;2023-07-28T00:36:27;16.40;99.90
6788;DHT22;3431;47.966;10.268;2023-07-28T00:36:50;16.40;99.90
6788;DHT22;3431;47.966;10.268;2023-07-28T00:37:11;16.40;99.90
6788;DHT22;3431;47.966;10.268;2023-07-28T00:37:33;16.40;99.90
6788;DHT22;3431;47.966;10.268;2023-07-28T00:37:55;16.40;99.90
6788;DHT22;3431;47.966;10.268;2023-07-28T00:38:16;16.40;99.90
6788;DHT22;3431;47.966;10.268;2023-07-28T00:38:38;16.40;99.90
6788;DHT22;3431;47.966;10.268;2023-07-28T00:39:00;16.40;99.90
6788;DHT22;3431;47.966;10.268;2023-07-28T00:39:22;16.40;99.90
6788;DHT22;3431;47.966;10.268;2023-07-28T00:39:44;16.40;99.90
6788;DHT22;3431;47.966;10.268;2023-07-28T00:40:06;16.40;99.90
6788;DHT22;3431;47.966;10.268;2023-07-28T00:40:28;16.40;99.90
6788;DHT22;3431;47.966;10.268;2023-07-28T00:40:50;16.40;99.90
6788;DHT22;3431;47.966;10.268;2023-07-28T00:41:12;16.40;99.90
6788;DHT22;3431;47.966;10.268;2023-07-28T00:41:34;16.40;99.90
6788;DHT22;3431;47.966;10.268;2023-07-28T00:41:55;17.60;99.90
6788;DHT22;3431;47.966;10.268;2023-07-28T00:42:17;16.40;99.90
6788;DHT22;3431;47.966;10.268;2023-07-28T00:42:38;16.30;99.90
6788;DHT22;3431;47.966;10.268;2023-07-28T00:43:01;16.30;99.90
6788;DHT22;3431;47.966;10.268;2023-07-28T00:43:23;16.30;99.90
6788;DHT22;3431;47.966;10.268;2023-07-28T00:43:45;16.30;99.90
6788;DHT22;3431;47.966;10.268;2023-07-28T00:44:07;16.30;99.90
6788;DHT22;3431;47.966;10.268;2023-07-28T00:44:30;16.30;99.90
6788;DHT22;3431;47.966;10.268;2023-07-28T00:44:51;16.30;99.90
6788;DHT22;3431;47.966;10.268;2023-07-28T00:45:13;16.30;99.90
6788;DHT22;3431;47.966;10.268;2023-07-28T00:45:36;16.30;99.90
6788;DHT22;3431;47.966;10.268;2023-07-28T00:45:58;16.30;99.90
6788;DHT22;3431;47.966;10.268;2023-07-28T00:46:19;16.30;99.90
6788;DHT22;3431;47.966;10.268;2023-07-28T00:46:42;16.30;99.90
6788;DHT22;3431;47.966;10.268;2023-07-28T00:47:04;16.30;99.90
6788;DHT22;3431;47.966;10.268;2023-07-28T00:47:25;16.30;99.90
6788;DHT22;3431;47.966;10.268;2023-07-28T00:47:47;16.20;99.90
6788;DHT22;3431;47.966;10.268;2023-07-28T00:48:12;16.20;99.90
6788;DHT22;3431;47.966;10.268;2023-07-28T00:48:35;16.30;99.90
6788;DHT22;3431;47.966;10.268;2023-07-28T00:48:56;16.20;99.90
6788;DHT22;3431;47.966;10.268;2023-07-28T00:49:18;16.20;99.90
6788;DHT22;3431;47.966;10.268;2023-07-28T00:49:40;16.20;99.90
6788;DHT22;3431;47.966;10.268;2023-07-28T00:50:04;16.20;99.90
6788;DHT22;3431;47.966;10.268;2023-07-28T00:50:26;16.20;99.90
6788;DHT22;3431;47.966;10.268;2023-07-28T00:50:49;16.30;99.90
6788;DHT22;3431;47.966;10.268;2023-07-28T00:51:11;16.20;99.90
6788;DHT22;3431;47.966;10.268;2023-07-28T00:51:33;16.20;99.90
6788;DHT22;3431;47.966;10.268;2023-07-28T00:51:57;16.20;99.90
6788;DHT22;3431;47.966;10.268;2023-07-28T00:52:19;16.20;99.90
6788;DHT22;3431;47.966;10.268;2023-07-28T00:52:41;16.20;99.90
6788;DHT22;3431;47.966;10.268;2023-07-28T00:53:03;16.30;99.90
6788;DHT22;3431;47.966;10.268;2023-07-28T00:53:24;16.20;99.90
6788;DHT22;3431;47.966;10.268;2023-07-28T00:53:48;16.20;99.90
6788;DHT22;3431;47.966;10.268;2023-07-28T00:54:10;16.20;99.90
6788;DHT22;3431;47.966;10.268;2023-07-28T00:54:32;16.20;99.90
6788;DHT22;3431;47.966;10.268;2023-07-28T00:54:54;16.20;99.90
6788;DHT22;3431;47.966;10.268;2023-07-28T00:55:16;16.20;99.90
6788;DHT22;3431;47.966;10.268;2023-07-28T00:55:39;16.20;99.90
6788;DHT22;3431;47.966;10.268;2023-07-28T00:56:01;16.20;99.90
6788;DHT22;3431;47.966;10.268;2023-07-28T00:56:23;16.20;99.90
6788;DHT22;3431;47.966;10.268;2023-07-28T00:56:44;16.20;99.90
6788;DHT22;3431;47.966;10.268;2023-07-28T00:57:06;16.20;99.90
6788;DHT22;3431;47.966;10.268;2023-07-28T00:57:30;16.20;99.90
6788;DHT22;3431;47.966;10.268;2023-07-28T00:57:52;16.20;99.90
6788;DHT22;3431;47.966;10.268;2023-07-28T00:58:14;16.20;99.90
6788;DHT22;3431;47.966;10.268;2023-07-28T00:58:35;16.20;99.90
6788;DHT22;3431;47.966;10.268;2023-07-28T00:58:58;16.20;99.90
6788;DHT22;3431;47.966;10.268;2023-07-28T00:59:20;16.20;99.90
6788;DHT22;3431;47.966;10.268;2023-07-28T00:59:43;16.20;99.90
6788;DHT22;3431;47.966;10.268;2023-07-28T01:00:06;16.20;99.90
6788;DHT22;3431;47.966;10.268;2023-07-28T01:00:28;16.20;99.90
6788;DHT22;3431;47.966;10.268;2023-07-28T01:00:50;16.20;99.90
6788;DHT22;3431;47.966;10.268;2023-07-28T01:01:11;16.20;99.90
6788;DHT22;3431;47.966;10.268;2023-07-28T01:01:33;16.20;99.90
6788;DHT22;3431;47.966;10.268;2023-07-28T01:01:55;16.20;99.90
6788;DHT22;3431;47.966;10.268;2023-07-28T01:02:17;16.20;99.90
6788;DHT22;3431;47.966;10.268;2023-07-28T01:02:39;16.20;99.90
6788;DHT22;3431;47.966;10.268;2023-07-28T01:03:02;16.20;99.90
6788;DHT22;3431;47.966;10.268;2023-07-28T01:03:25;16.20;99.90
6788;DHT22;3431;47.966;10.268;2023-07-28T01:03:48;16.20;99.90
6788;DHT22;3431;47.966;10.268;2023-07-28T01:04:10;16.20;99.90
6788;DHT22;3431;47.966;10.268;2023-07-28T01:04:31;16.10;99.90
6788;DHT22;3431;47.966;10.268;2023-07-28T01:04:53;16.20;99.90
6788;DHT22;3431;47.966;10.268;2023-07-28T01:05:15;16.10;99.90
6788;DHT22;3431;47.966;10.268;2023-07-28T01:05:44;16.10;99.90
6788;DHT22;3431;47.966;10.268;2023-07-28T01:06:15;16.10;99.90
6788;DHT22;3431;47.966;10.268;2023-07-28T01:06:47;16.10;99.90
6788;DHT22;3431;47.966;10.268;2023-07-28T01:07:15;16.10;99.90
6788;DHT22;3431;47.966;10.268;2023-07-28T01:07:42;16.10;99.90
6788;DHT22;3431;47.966;10.268;2023-07-28T01:08:10;16.10;99.90
6788;DHT22;3431;47.966;10.268;2023-07-28T01:08:36;16.10;99.90
6788;DHT22;3431;47.966;10.268;2023-07-28T01:09:03;16.10;99.90
6788;DHT22;3431;47.966;10.268;2023-07-28T01:09:29;16.10;99.90
6788;DHT22;3431;47.966;10.268;2023-07-28T01:10:02;16.10;99.90
6788;DHT22;3431;47.966;10.268;2023-07-28T01:10:30;16.00;99.90
6788;DHT22;3431;47.966;10.268;2023-07-28T01:10:52;16.00;99.90
6788;DHT22;3431;47.966;10.268;2023-07-28T01:11:14;16.00;99.90
6788;DHT22;3431;47.966;10.268;2023-07-28T01:11:37;16.00;99.90
6788;DHT22;3431;47.966;10.268;2023-07-28T01:11:58;16.00;99.90
6788;DHT22;3431;47.966;10.268;2023-07-28T01:12:24;16.00;99.90
6788;DHT22;3431;47.966;10.268;2023-07-28T01:12:46;16.00;99.90
6788;DHT22;3431;47.966;10.268;2023-07-28T01:13:08;16.00;99.90
6788;DHT22;3431;47.966;10.268;2023-07-28T01:13:29;16.00;99.90
6788;DHT22;3431;47.966;10.268;2023-07-28T01:13:51;16.00;99.90
6788;DHT22;3431;47.966;10.268;2023-07-28T01:14:14;16.00;99.90
6788;DHT22;3431;47.966;10.268;2023-07-28T01:14:35;16.00;99.90
6788;DHT22;3431;47.966;10.268;2023-07-28T01:14:58;16.00;99.90
6788;DHT22;3431;47.966;10.268;2023-07-28T01:15:19;16.00;99.90
6788;DHT22;3431;47.966;10.268;2023-07-28T01:15:41;16.00;99.90
6788;DHT22;3431;47.966;10.268;2023-07-28T01:16:03;16.00;99.90
6788;DHT22;3431;47.966;10.268;2023-07-28T01:16:24;16.00;99.90
6788;DHT22;3431;47.966;10.268;2023-07-28T01:16:47;16.00;99.90
6788;DHT22;3431;47.966;10.268;2023-07-28T01:17:08;16.00;99.90
6788;DHT22;3431;47.966;10.268;2023-07-28T01:17:30;16.10;99.90
6788;DHT22;3431;47.966;10.268;2023-07-28T01:17:52;16.00;99.90
6788;DHT22;3431;47.966;10.268;2023-07-28T01:18:14;16.00;99.90
6788;DHT22;3431;47.966;10.268;2023-07-28T01:18:36;16.00;99.90
6788;DHT22;3431;47.966;10.268;2023-07-28T01:18:59;16.00;99.90
6788;DHT22;3431;47.966;10.268;2023-07-28T01:19:21;16.00;99.90
6788;DHT22;3431;47.966;10.268;2023-07-28T01:19:44;16.00;99.90
6788;DHT22;3431;47.966;10.268;2023-07-28T01:20:06;16.00;99.90
6788;DHT22;3431;47.966;10.268;2023-07-28T01:20:30;16.00;99.90
6788;DHT22;3431;47.966;10.268;2023-07-28T01:20:55;16.00;99.90
6788;DHT22;3431;47.966;10.268;2023-07-28T01:21:21;16.00;99.90
6788;DHT22;3431;47.966;10.268;2023-07-28T01:21:45;16.00;99.90
6788;DHT22;3431;47.966;10.268;2023-07-28T01:22:22;16.00;99.90
6788;DHT22;3431;47.966;10.268;2023-07-28T01:23:04;16.00;99.90
6788;DHT22;3431;47.966;10.268;2023-07-28T01:23:37;16.00;99.90
6788;DHT22;3431;47.966;10.268;2023-07-28T01:24:08;16.00;99.90
6788;DHT22;3431;47.966;10.268;2023-07-28T01:24:47;16.00;99.90
6788;DHT22;3431;47.966;10.268;2023-07-28T01:25:18;16.40;99.90
6788;DHT22;3431;47.966;10.268;2023-07-28T01:25:49;16.00;99.90
6788;DHT22;3431;47.966;10.268;2023-07-28T01:26:15;16.00;99.90
6788;DHT22;3431;47.966;10.268;2023-07-28T01:26:39;16.00;99.90
6788;DHT22;3431;47.966;10.268;2023-07-28T01:27:01;16.00;99.90
6788;DHT22;3431;47.966;10.268;2023-07-28T01:27:23;16.00;99.90
6788;DHT22;3431;47.966;10.268;2023-07-28T01:27:47;16.00;99.90
6788;DHT22;3431;47.966;10.268;2023-07-28T01:28:09;16.00;99.90
6788;DHT22;3431;47.966;10.268;2023-07-28T01:28:33;16.00;99.90
6788;DHT22;3431;47.966;10.268;2023-07-28T01:28:55;16.00;99.90
6788;DHT22;3431;47.966;10.268;2023-07-28T01:29:17;16.00;99.90
6788;DHT22;3431;47.966;10.268;2023-07-28T01:29:40;16.00;99.90
6788;DHT22;3431;47.966;10.268;2023-07-28T01:30:02;16.00;99.90
6788;DHT22;3431;47.966;10.268;2023-07-28T01:30:24;16.00;99.90
6788;DHT22;3431;47.966;10.268;2023-07-28T01:30:47;16.00;99.90
6788;DHT22;3431;47.966;10.268;2023-07-28T01:31:09;16.00;99.90
6788;DHT22;3431;47.966;10.268;2023-07-28T01:31:31;16.00;99.90
6788;DHT22;3431;47.966;10.268;2023-07-28T01:31:54;15.90;99.90
6788;DHT22;3431;47.966;10.268;2023-07-28T01:32:15;16.00;99.90
6788;DHT22;3431;47.966;10.268;2023-07-28T01:32:37;16.00;99.90
6788;DHT22;3431;47.966;10.268;2023-07-28T01:32:59;16.00;99.90
6788;DHT22;3431;47.966;10.268;2023-07-28T01:33:20;16.00;99.90
6788;DHT22;3431;47.966;10.268;2023-07-28T01:33:42;16.00;99.90
6788;DHT22;3431;47.966;10.268;2023-07-28T01:34:04;16.00;99.90
6788;DHT22;3431;47.966;10.268;2023-07-28T01:34:26;15.90;99.90
6788;DHT22;3431;47.966;10.268;2023-07-28T01:34:47;16.00;99.90
6788;DHT22;3431;47.966;10.268;2023-07-28T01:35:09;16.00;99.90
6788;DHT22;3431;47.966;10.268;2023-07-28T01:35:30;15.90;99.90
6788;DHT22;3431;47.966;10.268;2023-07-28T01:35:53;16.00;99.90
6788;DHT22;3431;47.966;10.268;2023-07-28T01:36:15;15.90;99.90
6788;DHT22;3431;47.966;10.268;2023-07-28T01:36:36;15.90;99.90
6788;DHT22;3431;47.966;10.268;2023-07-28T01:36:58;15.90;99.90
6788;DHT22;3431;47.966;10.268;2023-07-28T01:37:20;15.90;99.90
6788;DHT22;3431;47.966;10.268;2023-07-28T01:37:42;15.90;99.90
6788;DHT22;3431;47.966;10.268;2023-07-28T01:38:04;15.90;99.90
6788;DHT22;3431;47.966;10.268;2023-07-28T01:38:26;15.90;99.90
6788;DHT22;3431;47.966;10.268;2023-07-28T01:38:48;15.90;99.90
6788;DHT22;3431;47.966;10.268;2023-07-28T01:39:10;15.90;99.90
6788;DHT22;3431;47.966;10.268;2023-07-28T01:39:32;15.90;99.90
6788;DHT22;3431;47.966;10.268;2023-07-28T01:39:55;15.90;99.90
6788;DHT22;3431;47.966;10.268;2023-07-28T01:40:16;15.90;99.90
6788;DHT22;3431;47.966;10.268;2023-07-28T01:40:38;15.90;99.90
6788;DHT22;3431;47.966;10.268;2023-07-28T01:40:59;15.80;99.90
6788;DHT22;3431;47.966;10.268;2023-07-28T01:41:22;15.90;99.90
6788;DHT22;3431;47.966;10.268;2023-07-28T01:41:45;15.80;99.90
6788;DHT22;3431;47.966;10.268;2023-07-28T01:42:06;15.90;99.90
6788;DHT22;3431;47.966;10.268;2023-07-28T01:42:28;15.80;99.90
6788;DHT22;3431;47.966;10.268;2023-07-28T01:42:49;15.90;99.90
6788;DHT22;3431;47.966;10.268;2023-07-28T01:43:11;15.90;99.90
6788;DHT22;3431;47.966;10.268;2023-07-28T01:43:32;15.90;99.90
6788;DHT22;3431;47.966;10.268;2023-07-28T01:43:55;15.90;99.90
6788;DHT22;3431;47.966;10.268;2023-07-28T01:44:16;15.90;99.90
6788;DHT22;3431;47.966;10.268;2023-07-28T01:44:38;15.80;99.90
6788;DHT22;3431;47.966;10.268;2023-07-28T01:44:59;15.90;99.90
6788;DHT22;3431;47.966;10.268;2023-07-28T01:45:21;15.80;99.90
6788;DHT22;3431;47.966;10.268;2023-07-28T01:45:43;15.90;99.90
6788;DHT22;3431;47.966;10.268;2023-07-28T01:46:05;15.90;99.90
6788;DHT22;3431;47.966;10.268;2023-07-28T01:46:27;15.90;99.90
6788;DHT22;3431;47.966;10.268;2023-07-28T01:46:48;15.90;99.90
6788;DHT22;3431;47.966;10.268;2023-07-28T01:47:10;15.90;99.90
6788;DHT22;3431;47.966;10.268;2023-07-28T01:47:31;15.90;99.90
6788;DHT22;3431;47.966;10.268;2023-07-28T01:47:53;15.90;99.90
6788;DHT22;3431;47.966;10.268;2023-07-28T01:48:15;15.90;99.90
6788;DHT22;3431;47.966;10.268;2023-07-28T01:48:37;15.90;99.90
6788;DHT22;3431;47.966;10.268;2023-07-28T01:48:59;15.90;99.90
6788;DHT22;3431;47.966;10.268;2023-07-28T01:49:20;15.90;99.90
6788;DHT22;3431;47.966;10.268;2023-07-28T01:49:42;15.90;99.90
6788;DHT22;3431;47.966;10.268;2023-07-28T01:50:04;15.90;99.90
6788;DHT22;3431;47.966;10.268;2023-07-28T01:50:25;15.90;99.90
6788;DHT22;3431;47.966;10.268;2023-07-28T01:50:48;15.90;99.90
6788;DHT22;3431;47.966;10.268;2023-07-28T01:51:09;15.90;99.90
6788;DHT22;3431;47.966;10.268;2023-07-28T01:51:31;15.80;99.90
6788;DHT22;3431;47.966;10.268;2023-07-28T01:51:53;15.80;99.90
6788;DHT22;3431;47.966;10.268;2023-07-28T01:52:15;15.90;99.90
6788;DHT22;3431;47.966;10.268;2023-07-28T01:52:36;15.80;99.90
6788;DHT22;3431;47.966;10.268;2023-07-28T01:52:58;15.90;99.90
6788;DHT22;3431;47.966;10.268;2023-07-28T01:53:19;15.90;99.90
6788;DHT22;3431;47.966;10.268;2023-07-28T01:53:41;15.90;99.90
6788;DHT22;3431;47.966;10.268;2023-07-28T01:54:02;15.90;99.90
6788;DHT22;3431;47.966;10.268;2023-07-28T01:54:25;15.90;99.90
6788;DHT22;3431;47.966;10.268;2023-07-28T01:54:46;15.90;99.90
6788;DHT22;3431;47.966;10.268;2023-07-28T01:55:08;15.90;99.90
6788;DHT22;3431;47.966;10.268;2023-07-28T01:55:30;15.90;99.90
6788;DHT22;3431;47.966;10.268;2023-07-28T01:55:52;15.90;99.90
6788;DHT22;3431;47.966;10.268;2023-07-28T01:56:13;15.90;99.90
6788;DHT22;3431;47.966;10.268;2023-07-28T01:56:36;15.90;99.90
6788;DHT22;3431;47.966;10.268;2023-07-28T01:56:59;15.90;99.90
6788;DHT22;3431;47.966;10.268;2023-07-28T01:57:20;15.90;99.90
6788;DHT22;3431;47.966;10.268;2023-07-28T01:57:50;15.90;99.90
6788;DHT22;3431;47.966;10.268;2023-07-28T01:58:12;15.90;99.90
6788;DHT22;3431;47.966;10.268;2023-07-28T01:58:35;15.90;99.90
6788;DHT22;3431;47.966;10.268;2023-07-28T01:58:56;15.90;99.90
6788;DHT22;3431;47.966;10.268;2023-07-28T01:59:18;15.90;99.90
6788;DHT22;3431;47.966;10.268;2023-07-28T01:59:40;15.90;99.90
6788;DHT22;3431;47.966;10.268;2023-07-28T02:00:02;15.90;99.90
6788;DHT22;3431;47.966;10.268;2023-07-28T02:00:34;15.90;99.90
6788;DHT22;3431;47.966;10.268;2023-07-28T02:00:57;15.90;99.90
6788;DHT22;3431;47.966;10.268;2023-07-28T02:01:19;15.90;99.90
6788;DHT22;3431;47.966;10.268;2023-07-28T02:01:40;15.90;99.90
6788;DHT22;3431;47.966;10.268;2023-07-28T02:02:02;15.90;99.90
6788;DHT22;3431;47.966;10.268;2023-07-28T02:02:23;15.90;99.90
6788;DHT22;3431;47.966;10.268;2023-07-28T02:02:46;15.90;99.90
6788;DHT22;3431;47.966;10.268;2023-07-28T02:03:08;15.90;99.90
6788;DHT22;3431;47.966;10.268;2023-07-28T02:03:30;15.90;99.90
6788;DHT22;3431;47.966;10.268;2023-07-28T02:03:51;15.90;99.90
6788;DHT22;3431;47.966;10.268;2023-07-28T02:04:13;15.90;99.90
6788;DHT22;3431;47.966;10.268;2023-07-28T02:04:37;15.80;99.90
6788;DHT22;3431;47.966;10.268;2023-07-28T02:04:58;15.90;99.90
6788;DHT22;3431;47.966;10.268;2023-07-28T02:05:20;15.90;99.90
6788;DHT22;3431;47.966;10.268;2023-07-28T02:05:42;15.90;99.90
6788;DHT22;3431;47.966;10.268;2023-07-28T02:06:03;15.80;99.90
6788;DHT22;3431;47.966;10.268;2023-07-28T02:06:26;15.90;99.90
6788;DHT22;3431;47.966;10.268;2023-07-28T02:06:49;15.80;99.90
6788;DHT22;3431;47.966;10.268;2023-07-28T02:07:10;15.80;99.90
6788;DHT22;3431;47.966;10.268;2023-07-28T02:07:32;15.80;99.90
6788;DHT22;3431;47.966;10.268;2023-07-28T02:07:53;15.80;99.90
6788;DHT22;3431;47.966;10.268;2023-07-28T02:08:15;15.80;99.90
6788;DHT22;3431;47.966;10.268;2023-07-28T02:08:37;15.80;99.90
6788;DHT22;3431;47.966;10.268;2023-07-28T02:08:59;15.80;99.90
6788;DHT22;3431;47.966;10.268;2023-07-28T02:09:20;15.80;99.90
6788;DHT22;3431;47.966;10.268;2023-07-28T02:09:42;15.80;99.90
6788;DHT22;3431;47.966;10.268;2023-07-28T02:10:04;15.80;99.90
6788;DHT22;3431;47.966;10.268;2023-07-28T02:10:26;15.80;99.90
6788;DHT22;3431;47.966;10.268;2023-07-28T02:10:49;15.70;99.90
6788;DHT22;3431;47.966;10.268;2023-07-28T02:11:11;15.70;99.90
6788;DHT22;3431;47.966;10.268;2023-07-28T02:11:32;15.70;99.90
6788;DHT22;3431;47.966;10.268;2023-07-28T02:11:54;15.70;99.90
6788;DHT22;3431;47.966;10.268;2023-07-28T02:12:17;15.70;99.90
6788;DHT22;3431;47.966;10.268;2023-07-28T02:12:39;15.70;99.90
6788;DHT22;3431;47.966;10.268;2023-07-28T02:13:02;15.70;99.90
6788;DHT22;3431;47.966;10.268;2023-07-28T02:13:23;15.70;99.90
6788;DHT22;3431;47.966;10.268;2023-07-28T02:13:45;15.70;99.90
6788;DHT22;3431;47.966;10.268;2023-07-28T02:14:11;15.70;99.90
6788;DHT22;3431;47.966;10.268;2023-07-28T02:14:34;15.70;99.90
6788;DHT22;3431;47.966;10.268;2023-07-28T02:14:55;15.70;99.90
6788;DHT22;3431;47.966;10.268;2023-07-28T02:15:17;15.70;99.90
6788;DHT22;3431;47.966;10.268;2023-07-28T02:15:39;15.70;99.90
6788;DHT22;3431;47.966;10.268;2023-07-28T02:16:01;15.70;99.90
6788;DHT22;3431;47.966;10.268;2023-07-28T02:16:23;15.70;99.90
6788;DHT22;3431;47.966;10.268;2023-07-28T02:16:44;15.70;99.90
6788;DHT22;3431;47.966;10.268;2023-07-28T02:17:06;15.70;99.90
6788;DHT22;3431;47.966;10.268;2023-07-28T02:17:27;15.70;99.90
6788;DHT22;3431;47.966;10.268;2023-07-28T02:17:49;15.70;99.90
6788;DHT22;3431;47.966;10.268;2023-07-28T02:18:16;15.70;99.90
6788;DHT22;3431;47.966;10.268;2023-07-28T02:18:37;15.70;99.90
6788;DHT22;3431;47.966;10.268;2023-07-28T02:18:59;15.60;99.90
6788;DHT22;3431;47.966;10.268;2023-07-28T02:19:21;15.60;99.90
6788;DHT22;3431;47.966;10.268;2023-07-28T02:19:42;15.60;99.90
6788;DHT22;3431;47.966;10.268;2023-07-28T02:20:05;15.60;99.90
6788;DHT22;3431;47.966;10.268;2023-07-28T02:20:31;15.60;99.90
6788;DHT22;3431;47.966;10.268;2023-07-28T02:20:54;15.60;99.90
6788;DHT22;3431;47.966;10.268;2023-07-28T02:21:16;15.60;99.90
6788;DHT22;3431;47.966;10.268;2023-07-28T02:21:37;15.60;99.90
6788;DHT22;3431;47.966;10.268;2023-07-28T02:22:00;15.60;99.90
6788;DHT22;3431;47.966;10.268;2023-07-28T02:22:21;15.60;99.90
6788;DHT22;3431;47.966;10.268;2023-07-28T02:22:43;15.60;99.90
6788;DHT22;3431;47.966;10.268;2023-07-28T02:23:05;15.60;99.90
6788;DHT22;3431;47.966;10.268;2023-07-28T02:23:26;15.60;99.90
6788;DHT22;3431;47.966;10.268;2023-07-28T02:23:49;15.60;99.90
6788;DHT22;3431;47.966;10.268;2023-07-28T02:24:10;15.60;99.90
6788;DHT22;3431;47.966;10.268;2023-07-28T02:24:32;15.60;99.90